Time;durP1;ratioP1;P1;durP2;ratioP2;P2;SDS_P1;SDS_P2;PMS_P1;PMS_P2;Temp;Humidity;BMP_temperature;BMP_pressure;BME280_temperature;BME280_humidity;BME280_pressure;Samples;Min_cycle;Max_cycle;Signal;HPM_P1;HPM_P2
2021/12/21 05:16:22;;;;;;;;;;;;;;;-0.23;74.94;97356.63;4266196;27;10156;-67
2021/12/21 05:18:25;;;;;;;;;;;;;;;-0.49;75.06;97357.72;4250531;27;5640;-67
2021/12/21 05:20:27;;;;;;;;;;;;;;;-0.46;75.63;97352.28;4249546;27;5695;-67
2021/12/21 05:22:28;;;;;;;;;;;;;;;-0.43;75.45;97352.91;4214530;28;5769;-67
2021/12/21 05:24:30;;;;;;;;;;;;;;;-0.35;75.41;97357.53;4250391;27;5604;-68
2021/12/21 05:26:32;;;;;;;;;;;;;;;-0.28;75.25;97355.31;4249784;27;5681;-66
2021/12/21 05:28:33;;;;;;;;;;;;;;;-0.33;75.18;97358.28;4236864;27;5839;-67
2021/12/21 05:30:36;;;;;;;;;;;;;;;-0.32;75.36;97355.56;4248789;27;5627;-67
2021/12/21 05:32:38;;;;;;;;;;;;;;;-0.28;75.01;97361.34;4248553;27;5731;-66
2021/12/21 05:34:40;;;;;;;;;;;;;;;-0.28;74.75;97356.16;4229792;27;5958;-67
2021/12/21 05:36:42;;;;;;;;;;;;;;;-0.36;75.53;97363.66;4229666;28;5728;-66
2021/12/21 05:38:58;;;;;;;;;;;;;;;-0.40;75.36;97362.25;4249973;27;5613;-66
2021/12/21 05:41:11;;;;;;;;;;;;;;;-0.33;75.07;97363.47;4214496;28;5794;-67
2021/12/21 05:43:15;;;;;;;;;;;;;;;-0.25;75.06;97355.09;4214981;28;5766;-67
2021/12/21 05:45:17;;;;;;;;;;;;;;;-0.15;74.63;97363.88;4233390;28;5616;-67
2021/12/21 05:47:19;;;;;;;;;;;;;;;-0.10;74.33;97366.97;4233671;27;6319;-67
2021/12/21 05:49:21;;;;;;;;;;;;;;;-0.18;74.82;97367.53;4247766;27;5596;-67
2021/12/21 05:51:23;;;;;;;;;;;;;;;-0.08;74.01;97362.50;4248863;27;5632;-67
2021/12/21 05:53:24;;;;;;;;;;;;;;;0.06;73.72;97367.50;4230797;28;5732;-66
2021/12/21 05:55:29;;;;;;;;;;;;;;;0.31;73.57;97363.88;4231425;28;5713;-66
2021/12/21 05:57:31;;;;;;;;;;;;;;;0.29;72.60;97366.59;4245819;27;5609;-67
2021/12/21 05:59:33;;;;;;;;;;;;;;;0.31;73.00;97365.66;4211609;28;5762;-66
2021/12/21 06:01:35;;;;;;;;;;;;;;;0.20;72.63;97369.06;4243134;27;5613;-66
2021/12/21 06:03:37;;;;;;;;;;;;;;;0.25;72.78;97377.38;4244524;27;6626;-66
2021/12/21 06:05:39;;;;;;;;;;;;;;;0.17;72.89;97366.69;4244981;27;5617;-66
2021/12/21 06:07:41;;;;;;;;;;;;;;;0.04;73.25;97371.16;4213684;28;5853;-66
2021/12/21 06:09:45;;;;;;;;;;;;;;;0.10;73.68;97374.13;4249501;27;5705;-66
2021/12/21 06:12:01;;;;;;;;;;;;;;;0.26;73.24;97379.03;4230722;28;5772;-67
2021/12/21 06:27:36;;;;;;;;;;;;;;;0.58;71.23;97382.63;4168402;28;5795;-67
2021/12/21 06:29:37;;;;;;;;;;;;;;;0.50;71.74;97371.97;4167858;28;6177;-66
2021/12/21 06:31:40;;;;;;;;;;;;;;;0.75;71.96;97373.50;4158928;28;7103;-66
2021/12/21 06:33:42;;;;;;;;;;;;;;;0.92;71.77;97374.81;4168550;28;5744;-66
2021/12/21 06:35:44;;;;;;;;;;;;;;;0.99;71.33;97373.38;4170369;28;5649;-68
2021/12/21 06:37:46;;;;;;;;;;;;;;;1.03;71.08;97374.81;4170571;28;5673;-68
2021/12/21 06:39:48;;;;;;;;;;;;;;;1.00;71.12;97372.44;4170835;28;5664;-69
2021/12/21 06:41:50;;;;;;;;;;;;;;;1.00;71.07;97375.03;4136539;28;5810;-68
2021/12/21 06:43:52;;;;;;;;;;;;;;;0.98;71.15;97376.13;4153406;28;5752;-66
2021/12/21 06:46:02;;;;;;;;;;;;;;;1.01;70.91;97374.09;4153000;28;5760;-66
2021/12/21 06:52:49;;;;;;;;;;;;;;;1.00;70.78;97379.41;4154819;28;5804;-67
2021/12/21 06:54:51;;;;;;;;;;;;;;;0.66;71.34;97384.63;4169422;28;5656;-66
2021/12/21 06:56:52;;;;;;;;;;;;;;;0.58;71.60;97377.41;4153300;28;5857;-67
2021/12/21 06:58:56;;;;;;;;;;;;;;;0.66;71.80;97376.00;4152082;28;5873;-66
2021/12/21 07:00:58;;;;;;;;;;;;;;;0.86;71.25;97375.28;4163136;28;5894;-68
2021/12/21 07:02:59;;;;;;;;;;;;;;;0.98;70.96;97382.16;4163300;28;5874;-66
2021/12/21 07:05:02;;;;;;;;;;;;;;;0.96;70.57;97385.81;4168413;28;5760;-67
2021/12/21 07:07:03;;;;;;;;;;;;;;;0.55;71.85;97393.25;4170026;28;5579;-66
2021/12/21 07:09:14;;;;;;;;;;;;;;;0.64;71.25;97389.13;4169975;28;6412;-67
2021/12/21 07:11:25;;;;;;;;;;;;;;;0.57;71.08;97391.38;4153459;28;5687;-69
2021/12/21 07:18:13;;;;;;;;;;;;;;;0.97;70.91;97393.50;4166736;28;5802;-66
2021/12/21 07:20:15;;;;;;;;;;;;;;;0.78;70.56;97394.09;4157031;28;5827;-65
2021/12/21 07:22:17;;;;;;;;;;;;;;;0.86;70.72;97396.94;4165344;28;5557;-65
2021/12/21 07:24:18;;;;;;;;;;;;;;;0.99;70.36;97401.19;4166537;28;6129;-65
2021/12/21 07:26:20;;;;;;;;;;;;;;;1.05;70.76;97396.34;4160237;28;5667;-66
2021/12/21 07:28:22;;;;;;;;;;;;;;;1.17;70.43;97399.78;4153055;28;5684;-66
2021/12/21 07:30:24;;;;;;;;;;;;;;;1.20;70.24;97396.94;4168608;28;6306;-66
2021/12/21 07:32:25;;;;;;;;;;;;;;;1.23;69.98;97398.47;4151934;28;5876;-71
2021/12/21 07:34:27;;;;;;;;;;;;;;;1.15;70.26;97402.50;4160854;28;5759;-70
2021/12/21 07:36:32;;;;;;;;;;;;;;;1.15;70.15;97402.50;4154102;28;5560;-67
2021/12/21 07:38:34;;;;;;;;;;;;;;;1.19;70.30;97400.47;4156267;28;5694;-67
2021/12/21 07:40:36;;;;;;;;;;;;;;;1.25;70.62;97399.19;4169332;28;5716;-67
2021/12/21 07:42:38;;;;;;;;;;;;;;;1.09;70.46;97397.75;4165659;28;5671;-67
2021/12/21 07:44:40;;;;;;;;;;;;;;;1.14;70.45;97400.03;4164855;28;5708;-65
2021/12/21 07:46:42;;;;;;;;;;;;;;;1.19;70.29;97402.25;4169421;28;5672;-65
2021/12/21 07:48:44;;;;;;;;;;;;;;;1.18;70.41;97409.25;4169220;28;5648;-65
2021/12/21 07:50:47;;;;;;;;;;;;;;;1.25;69.98;97402.63;4152024;28;5752;-65
2021/12/21 07:52:51;;;;;;;;;;;;;;;1.25;70.00;97401.78;4160430;28;5668;-65
2021/12/21 07:54:53;;;;;;;;;;;;;;;1.32;69.98;97400.34;4159111;28;5673;-65
2021/12/21 07:56:54;;;;;;;;;;;;;;;1.10;70.03;97399.41;4169025;28;5788;-65
2021/12/21 07:58:56;;;;;;;;;;;;;;;0.79;70.65;97398.38;4151700;28;6567;-65
2021/12/21 08:00:59;;;;;;;;;;;;;;;0.37;72.08;97399.84;4151378;28;5687;-65
2021/12/21 08:03:01;;;;;;;;;;;;;;;0.67;71.69;97403.66;4151409;28;5777;-65
2021/12/21 08:05:05;;;;;;;;;;;;;;;0.91;70.90;97404.41;4169212;28;5668;-65
2021/12/21 08:07:12;;;;;;;;;;;;;;;1.01;70.69;97407.09;4151970;28;5760;-65
2021/12/21 08:09:14;;;;;;;;;;;;;;;0.98;70.18;97407.34;4164888;28;5682;-65
2021/12/21 08:13:18;;;;;;;;;;;;;;;0.71;70.72;97399.91;4151490;28;5756;-65
2021/12/21 08:15:20;;;;;;;;;;;;;;;0.25;72.08;97405.97;4152454;28;5715;-65
2021/12/21 08:17:22;;;;;;;;;;;;;;;0.56;71.54;97409.69;4151269;28;5873;-65
2021/12/21 08:19:24;;;;;;;;;;;;;;;0.80;70.29;97412.22;4152507;28;5695;-65
2021/12/21 08:21:26;;;;;;;;;;;;;;;0.89;70.41;97408.88;4151053;28;5798;-65
2021/12/21 08:23:28;;;;;;;;;;;;;;;0.86;70.37;97416.94;4152368;28;5671;-65
2021/12/21 08:25:32;;;;;;;;;;;;;;;0.88;70.18;97410.66;4152571;28;5758;-65
2021/12/21 08:27:34;;;;;;;;;;;;;;;0.88;70.28;97413.25;4134777;28;6145;-65
2021/12/21 08:29:36;;;;;;;;;;;;;;;1.04;70.32;97412.94;4151899;28;6475;-65
2021/12/21 08:31:42;;;;;;;;;;;;;;;1.09;69.53;97404.75;4152486;28;5730;-65
2021/12/21 08:33:44;;;;;;;;;;;;;;;1.02;69.71;97407.03;4152333;28;5680;-65
2021/12/21 08:35:46;;;;;;;;;;;;;;;0.88;69.63;97410.66;4152652;28;5667;-65
2021/12/21 08:37:51;;;;;;;;;;;;;;;0.93;70.39;97412.09;4152374;28;5682;-65
2021/12/21 08:39:55;;;;;;;;;;;;;;;0.72;70.11;97418.00;4152168;28;5676;-65
2021/12/21 08:41:59;;;;;;;;;;;;;;;0.59;70.03;97412.06;4150774;28;5821;-65
2021/12/21 08:44:03;;;;;;;;;;;;;;;0.35;71.02;97416.53;4151974;28;5675;-65
2021/12/21 08:46:08;;;;;;;;;;;;;;;0.55;71.03;97419.25;4154960;28;5955;-65
2021/12/21 08:48:11;;;;;;;;;;;;;;;0.75;70.61;97414.31;4166979;28;6364;-65
2021/12/21 08:50:14;;;;;;;;;;;;;;;0.93;70.36;97420.75;4151224;28;5795;-65
2021/12/21 08:52:16;;;;;;;;;;;;;;;1.05;69.80;97417.19;4168538;28;5660;-65
2021/12/21 08:54:18;;;;;;;;;;;;;;;1.06;69.83;97408.44;4168494;28;5783;-65
2021/12/21 08:56:19;;;;;;;;;;;;;;;1.16;69.56;97414.56;4167139;28;5657;-65
2021/12/21 08:58:22;;;;;;;;;;;;;;;1.26;69.96;97413.88;4168397;28;5785;-65
2021/12/21 09:00:24;;;;;;;;;;;;;;;1.35;69.48;97411.34;4162959;28;5671;-65
2021/12/21 09:02:29;;;;;;;;;;;;;;;1.34;69.72;97404.47;4152749;28;5131;-64
2021/12/21 09:04:32;;;;;;;;;;;;;;;1.17;69.53;97411.03;4134511;28;5891;-64
2021/12/21 09:06:33;;;;;;;;;;;;;;;1.12;69.84;97415.75;4163583;28;5748;-64
2021/12/21 09:08:36;;;;;;;;;;;;;;;1.22;69.46;97417.63;4149223;28;5764;-64
2021/12/21 09:10:39;;;;;;;;;;;;;;;1.23;69.52;97421.91;4157892;28;5835;-64
2021/12/21 09:12:42;;;;;;;;;;;;;;;1.21;69.37;97411.59;4165667;28;5094;-66
2021/12/21 09:14:43;;;;;;;;;;;;;;;1.20;69.53;97415.16;4141803;28;7784;-65
2021/12/21 09:16:45;;;;;;;;;;;;;;;1.08;69.83;97416.94;4168285;28;5573;-65
2021/12/21 09:18:46;;;;;;;;;;;;;;;1.06;69.53;97423.22;4164139;28;5675;-65
2021/12/21 09:20:48;;;;;;;;;;;;;;;1.09;69.86;97420.38;4183809;28;5812;-66
2021/12/21 09:22:50;;;;;;;;;;;;;;;1.14;69.76;97426.06;4163786;28;5934;-66
2021/12/21 09:24:53;;;;;;;;;;;;;;;1.18;69.42;97422.25;4167287;28;5736;-66
2021/12/21 09:26:54;;;;;;;;;;;;;;;0.92;70.52;97426.06;4167386;28;5872;-65
2021/12/21 09:28:56;;;;;;;;;;;;;;;0.86;70.30;97433.38;4167295;28;5854;-65
2021/12/21 09:30:58;;;;;;;;;;;;;;;1.11;70.38;97429.72;4167126;28;5795;-65
2021/12/21 09:33:00;;;;;;;;;;;;;;;0.97;70.21;97432.56;4167363;28;5735;-65
2021/12/21 09:35:03;;;;;;;;;;;;;;;0.80;71.10;97425.22;4166626;28;5872;-65
2021/12/21 09:37:06;;;;;;;;;;;;;;;0.79;71.07;97426.16;4168079;28;5738;-65
2021/12/21 09:39:07;;;;;;;;;;;;;;;0.69;71.22;97420.84;4167894;28;5823;-65
2021/12/21 09:41:09;;;;;;;;;;;;;;;0.95;70.81;97429.25;4166837;28;5668;-65
2021/12/21 09:43:11;;;;;;;;;;;;;;;1.13;70.32;97430.44;4171778;28;5693;-65
2021/12/21 09:45:14;;;;;;;;;;;;;;;1.01;70.46;97425.34;4154773;28;5762;-64
2021/12/21 09:47:16;;;;;;;;;;;;;;;1.07;70.51;97430.09;4157337;28;5755;-64
2021/12/21 09:49:18;;;;;;;;;;;;;;;1.10;70.25;97430.66;4159130;28;5786;-64
2021/12/21 09:51:19;;;;;;;;;;;;;;;1.17;70.35;97442.28;4167683;28;5727;-65
2021/12/21 09:53:22;;;;;;;;;;;;;;;0.95;70.81;97437.06;4157895;28;5785;-64
2021/12/21 09:55:24;;;;;;;;;;;;;;;1.00;70.94;97434.09;4164878;28;5895;-66
2021/12/21 09:57:26;;;;;;;;;;;;;;;1.09;70.62;97436.81;4157555;28;5757;-64
2021/12/21 09:59:29;;;;;;;;;;;;;;;1.10;70.70;97427.22;4156355;28;5753;-65
2021/12/21 10:01:30;;;;;;;;;;;;;;;1.23;70.52;97440.97;4164838;28;5734;-65
2021/12/21 10:03:32;;;;;;;;;;;;;;;1.31;70.23;97438.59;4171069;28;5739;-65
2021/12/21 10:05:37;;;;;;;;;;;;;;;1.08;70.57;97437.78;4168920;28;5739;-65
2021/12/21 10:07:39;;;;;;;;;;;;;;;1.23;70.41;97442.72;4171163;28;5902;-65
2021/12/21 10:09:47;;;;;;;;;;;;;;;1.17;70.97;97439.66;4179947;28;5670;-65
2021/12/21 10:11:48;;;;;;;;;;;;;;;1.25;70.83;97438.25;4171081;28;5874;-65
2021/12/21 10:13:50;;;;;;;;;;;;;;;1.33;70.27;97430.66;4202029;28;5758;-63
2021/12/21 10:15:54;;;;;;;;;;;;;;;1.38;70.39;97429.34;4157362;28;5764;-65
2021/12/21 10:18:03;;;;;;;;;;;;;;;1.43;70.32;97434.19;4166322;28;5724;-66
2021/12/21 10:20:07;;;;;;;;;;;;;;;1.52;70.07;97432.66;4157656;28;5764;-66
2021/12/21 10:22:14;;;;;;;;;;;;;;;1.31;68.96;97432.56;4154212;28;5699;-66
2021/12/21 10:24:23;;;;;;;;;;;;;;;1.15;69.82;97432.94;4154414;28;5706;-66
2021/12/21 10:26:31;;;;;;;;;;;;;;;1.21;69.35;97432.44;4140442;28;5829;-66
2021/12/21 10:28:37;;;;;;;;;;;;;;;1.26;69.51;97429.50;4167651;28;5913;-66
2021/12/21 10:30:50;;;;;;;;;;;;;;;1.25;68.95;97433.06;4180127;28;6828;-66
2021/12/21 10:32:55;;;;;;;;;;;;;;;1.15;69.01;97431.16;4168285;28;6676;-66
2021/12/21 10:35:15;;;;;;;;;;;;;;;0.98;69.46;97431.63;4170268;28;5645;-66
2021/12/21 10:37:27;;;;;;;;;;;;;;;1.26;69.15;97434.69;4152756;28;7223;-66
2021/12/21 10:39:31;;;;;;;;;;;;;;;1.43;68.92;97434.19;4152782;28;5765;-65
2021/12/21 10:41:42;;;;;;;;;;;;;;;1.31;68.73;97428.16;4169121;28;5735;-66
2021/12/21 10:43:58;;;;;;;;;;;;;;;1.31;68.54;97427.34;4136607;28;5790;-66
2021/12/21 10:46:01;;;;;;;;;;;;;;;1.41;68.77;97421.28;4152915;28;5756;-66
2021/12/21 10:48:05;;;;;;;;;;;;;;;1.29;68.97;97418.81;4153996;28;5860;-66
2021/12/21 10:50:08;;;;;;;;;;;;;;;1.32;68.75;97423.78;4152534;28;5696;-66
2021/12/21 10:52:14;;;;;;;;;;;;;;;1.28;68.81;97415.41;4169364;28;5731;-66
2021/12/21 10:54:33;;;;;;;;;;;;;;;1.17;68.81;97416.22;4170327;28;5668;-67
2021/12/21 10:56:36;;;;;;;;;;;;;;;1.14;69.09;97421.69;4169178;28;5783;-67
2021/12/21 10:58:41;;;;;;;;;;;;;;;1.20;69.26;97414.34;4169710;28;5664;-66
2021/12/21 11:00:53;;;;;;;;;;;;;;;1.26;69.04;97413.88;4154716;28;6368;-67
2021/12/21 11:02:55;;;;;;;;;;;;;;;1.16;69.00;97425.00;4178660;28;5665;-67
2021/12/21 11:05:07;;;;;;;;;;;;;;;1.09;68.87;97423.81;4154465;28;5760;-67
2021/12/21 11:09:55;;;;;;;;;;;;;;;1.01;68.92;97414.91;4147665;28;5979;-67
2021/12/21 11:11:58;;;;;;;;;;;;;;;1.06;69.09;97411.03;4166829;28;5660;-67
2021/12/21 11:14:12;;;;;;;;;;;;;;;1.07;69.41;97410.06;4154072;28;5777;-67
2021/12/21 11:16:13;;;;;;;;;;;;;;;1.08;69.32;97406.53;4147000;28;5764;-65
2021/12/21 11:18:17;;;;;;;;;;;;;;;1.00;69.34;97408.88;4168773;28;6532;-66
2021/12/21 11:20:22;;;;;;;;;;;;;;;1.03;69.25;97403.47;4169579;28;5576;-66
2021/12/21 11:22:24;;;;;;;;;;;;;;;1.11;68.97;97406.28;4150926;28;5760;-66
2021/12/21 11:24:29;;;;;;;;;;;;;;;1.15;68.97;97406.88;4169705;28;5760;-66
2021/12/21 11:26:32;;;;;;;;;;;;;;;1.21;69.04;97400.34;4169569;28;5772;-67
2021/12/21 11:28:36;;;;;;;;;;;;;;;1.25;68.98;97399.19;4134119;28;5905;-66
2021/12/21 11:30:40;;;;;;;;;;;;;;;1.32;68.72;97395.13;4151049;28;5769;-66
2021/12/21 11:32:45;;;;;;;;;;;;;;;1.27;68.01;97397.28;4164685;28;5672;-66
2021/12/21 11:37:22;;;;;;;;;;;;;;;1.17;68.61;97384.16;4154449;28;5898;-66
2021/12/21 11:39:24;;;;;;;;;;;;;;;1.30;68.79;97392.66;4151031;28;5776;-66
2021/12/21 11:41:26;;;;;;;;;;;;;;;1.39;68.68;97393.72;4168803;28;5648;-66
2021/12/21 11:43:30;;;;;;;;;;;;;;;1.40;68.34;97395.38;4167723;28;5668;-64
2021/12/21 11:45:33;;;;;;;;;;;;;;;1.32;68.14;97379.50;4168380;28;5757;-65
2021/12/21 11:47:40;;;;;;;;;;;;;;;1.22;68.63;97373.38;4148118;28;5752;-65
2021/12/21 11:49:54;;;;;;;;;;;;;;;1.27;68.07;97373.84;4164997;28;5649;-65
2021/12/21 11:52:13;;;;;;;;;;;;;;;1.39;68.32;97376.31;4151584;28;5767;-65
2021/12/21 11:54:17;;;;;;;;;;;;;;;1.40;68.11;97370.13;4150881;28;5772;-65
2021/12/21 11:56:23;;;;;;;;;;;;;;;1.35;68.37;97366.22;4167225;28;5807;-65
2021/12/21 11:58:32;;;;;;;;;;;;;;;1.20;68.33;97367.44;4142067;28;5761;-65
2021/12/21 12:00:35;;;;;;;;;;;;;;;0.91;69.24;97367.97;4152632;28;5675;-65
2021/12/21 12:02:38;;;;;;;;;;;;;;;0.96;69.40;97359.78;4153212;28;5671;-66
2021/12/21 12:04:40;;;;;;;;;;;;;;;1.22;69.00;97362.94;4162347;28;5713;-65
2021/12/21 12:06:46;;;;;;;;;;;;;;;1.46;68.70;97363.59;4179914;28;5634;-65
2021/12/21 12:08:58;;;;;;;;;;;;;;;1.56;68.34;97366.28;4157665;28;5601;-66
2021/12/21 12:11:00;;;;;;;;;;;;;;;1.59;68.06;97366.06;4168636;28;5748;-66
2021/12/21 12:13:25;;;;;;;;;;;;;;;1.52;68.15;97363.13;4167681;28;5744;-66
2021/12/21 12:15:27;;;;;;;;;;;;;;;1.63;67.83;97354.44;4168609;28;5667;-66
2021/12/21 12:17:30;;;;;;;;;;;;;;;1.56;67.98;97356.69;4166617;28;5728;-66
2021/12/21 12:19:34;;;;;;;;;;;;;;;1.54;67.46;97358.59;4168838;28;5660;-66
2021/12/21 12:21:35;;;;;;;;;;;;;;;1.55;67.74;97354.22;4152453;28;5785;-65
2021/12/21 12:24:17;;;;;;;;;;;;;;;1.02;68.49;97349.75;4168013;28;5739;-66
2021/12/21 12:26:36;;;;;;;;;;;;;;;0.70;70.25;97338.41;4176513;28;5796;-66
2021/12/21 12:28:37;;;;;;;;;;;;;;;1.17;69.13;97348.53;4196146;28;5635;-65
2021/12/21 12:30:48;;;;;;;;;;;;;;;1.33;68.67;97342.91;4165426;28;5818;-65
2021/12/21 12:33:01;;;;;;;;;;;;;;;1.46;68.62;97342.75;4167243;28;5925;-66
2021/12/21 12:35:08;;;;;;;;;;;;;;;1.54;68.40;97335.16;4167225;28;5669;-66
2021/12/21 12:37:23;;;;;;;;;;;;;;;1.54;68.23;97331.72;4178636;28;5629;-67
2021/12/21 12:39:29;;;;;;;;;;;;;;;1.12;69.19;97326.38;4150672;28;5671;-66
2021/12/21 12:41:43;;;;;;;;;;;;;;;1.41;68.73;97324.06;4157526;28;5727;-66
2021/12/21 12:43:45;;;;;;;;;;;;;;;1.24;69.17;97332.38;4165208;28;5664;-66
2021/12/21 12:45:51;;;;;;;;;;;;;;;1.22;69.26;97334.28;4183613;28;5662;-66
2021/12/21 12:47:54;;;;;;;;;;;;;;;1.37;69.21;97333.09;4166984;28;5793;-66
2021/12/21 12:49:56;;;;;;;;;;;;;;;1.49;68.61;97321.69;4164934;28;5750;-66
2021/12/21 12:52:14;;;;;;;;;;;;;;;1.56;68.76;97327.22;4167221;28;5677;-66
2021/12/21 12:54:21;;;;;;;;;;;;;;;1.59;68.72;97324.38;4164897;28;5754;-66
2021/12/21 12:56:25;;;;;;;;;;;;;;;1.60;68.71;97324.25;4161758;28;5764;-66
2021/12/21 12:58:28;;;;;;;;;;;;;;;1.65;68.22;97326.47;4157330;28;5727;-66
2021/12/21 13:00:32;;;;;;;;;;;;;;;1.67;68.47;97325.38;4167259;28;5834;-66
2021/12/21 13:02:34;;;;;;;;;;;;;;;1.63;68.50;97326.59;4166826;28;5743;-64
2021/12/21 13:04:37;;;;;;;;;;;;;;;1.37;68.91;97320.88;4163568;28;5739;-65
2021/12/21 13:06:42;;;;;;;;;;;;;;;1.23;69.46;97315.09;4159530;28;5756;-65
2021/12/21 13:08:45;;;;;;;;;;;;;;;1.14;70.07;97319.28;4151749;28;5745;-65
2021/12/21 13:10:50;;;;;;;;;;;;;;;1.43;69.44;97314.34;4150107;28;5751;-66
2021/12/21 13:12:56;;;;;;;;;;;;;;;1.64;68.75;97312.59;4166355;28;5804;-65
2021/12/21 13:14:59;;;;;;;;;;;;;;;1.78;68.63;97308.03;4151651;28;5744;-65
2021/12/21 13:17:00;;;;;;;;;;;;;;;1.62;68.40;97309.31;4151644;28;5812;-65
2021/12/21 13:19:04;;;;;;;;;;;;;;;1.65;68.44;97305.63;4150767;28;5692;-65
2021/12/21 13:21:21;;;;;;;;;;;;;;;1.67;68.36;97304.53;4159770;28;5735;-66
2021/12/21 13:23:26;;;;;;;;;;;;;;;1.50;68.40;97301.66;4194368;28;5654;-65
2021/12/21 13:25:27;;;;;;;;;;;;;;;1.64;68.35;97298.75;4153451;28;5757;-65
2021/12/21 13:27:29;;;;;;;;;;;;;;;1.21;69.51;97299.59;4167813;28;5664;-65
2021/12/21 13:29:32;;;;;;;;;;;;;;;1.22;69.82;97303.03;4171434;28;5776;-65
2021/12/21 13:31:34;;;;;;;;;;;;;;;1.46;69.44;97295.84;4183390;28;5665;-65
2021/12/21 13:33:40;;;;;;;;;;;;;;;1.63;68.63;97294.50;4156114;28;5748;-65
2021/12/21 13:35:43;;;;;;;;;;;;;;;1.56;68.47;97288.94;4159940;28;5746;-65
2021/12/21 13:37:44;;;;;;;;;;;;;;;1.61;68.72;97293.81;4154786;28;5870;-65
2021/12/21 13:39:57;;;;;;;;;;;;;;;1.71;68.65;97294.72;4182589;28;5661;-66
2021/12/21 13:42:05;;;;;;;;;;;;;;;1.53;69.15;97294.41;4170535;28;5731;-65
2021/12/21 13:44:08;;;;;;;;;;;;;;;1.68;68.61;97290.53;4154750;28;5858;-65
2021/12/21 13:46:10;;;;;;;;;;;;;;;1.69;68.39;97293.97;4189274;28;5718;-64
2021/12/21 13:48:16;;;;;;;;;;;;;;;1.78;68.62;97289.81;4171008;28;5756;-65
2021/12/21 13:50:26;;;;;;;;;;;;;;;1.69;68.07;97292.19;4168620;28;5735;-65
2021/12/21 13:52:33;;;;;;;;;;;;;;;1.64;69.06;97289.16;4154909;28;5715;-65
2021/12/21 13:54:35;;;;;;;;;;;;;;;1.48;68.79;97287.94;4154813;28;5772;-66
2021/12/21 13:56:36;;;;;;;;;;;;;;;1.52;69.30;97291.94;4154418;28;5859;-65
2021/12/21 13:58:39;;;;;;;;;;;;;;;1.36;69.72;97295.78;4168649;28;5731;-65
2021/12/21 14:00:43;;;;;;;;;;;;;;;1.63;69.28;97295.31;4168619;28;5795;-65
2021/12/21 14:02:52;;;;;;;;;;;;;;;1.66;69.05;97297.66;4157479;28;5867;-65
2021/12/21 14:05:05;;;;;;;;;;;;;;;1.67;69.21;97293.28;4164911;28;5886;-65
2021/12/21 14:07:07;;;;;;;;;;;;;;;1.77;68.80;97293.34;4159356;28;5865;-66
2021/12/21 14:09:11;;;;;;;;;;;;;;;1.80;68.78;97295.72;4166694;28;5735;-65
2021/12/21 14:11:13;;;;;;;;;;;;;;;1.78;68.67;97284.59;4202922;28;5786;-65
2021/12/21 14:13:26;;;;;;;;;;;;;;;1.77;68.72;97288.97;4165443;28;5746;-65
2021/12/21 14:15:42;;;;;;;;;;;;;;;1.70;68.91;97288.66;4161124;28;5754;-65
2021/12/21 14:17:44;;;;;;;;;;;;;;;1.60;69.34;97286.94;4156293;28;6421;-65
2021/12/21 14:19:59;;;;;;;;;;;;;;;1.73;68.81;97288.41;4163176;28;5751;-65
2021/12/21 14:22:02;;;;;;;;;;;;;;;1.70;68.61;97286.06;4160892;28;5747;-65
2021/12/21 14:24:15;;;;;;;;;;;;;;;1.67;68.79;97288.91;4157280;28;5683;-64
2021/12/21 14:26:23;;;;;;;;;;;;;;;1.62;68.98;97288.47;4164918;28;5756;-65
2021/12/21 14:28:27;;;;;;;;;;;;;;;1.65;69.06;97290.81;4175275;28;5654;-65
2021/12/21 14:30:28;;;;;;;;;;;;;;;1.71;69.24;97289.50;4164210;28;5719;-65
2021/12/21 14:32:53;;;;;;;;;;;;;;;1.58;69.31;97294.03;4152949;28;5757;-65
2021/12/21 14:34:53;;;;;;;;;;;;;;;1.66;69.42;97297.66;4170233;28;5770;-64
2021/12/21 14:36:56;;;;;;;;;;;;;;;1.67;69.01;97296.72;4169883;28;5727;-65
2021/12/21 14:39:19;;;;;;;;;;;;;;;1.66;69.34;97292.47;4170479;28;5739;-65
2021/12/21 14:41:24;;;;;;;;;;;;;;;1.59;69.53;97300.91;4160712;28;5853;-65
2021/12/21 14:43:30;;;;;;;;;;;;;;;1.67;69.47;97298.50;4154238;28;5797;-65
2021/12/21 14:45:32;;;;;;;;;;;;;;;1.54;69.85;97301.28;4164476;28;5664;-65
2021/12/21 14:47:35;;;;;;;;;;;;;;;1.63;69.69;97305.75;4152752;28;5756;-65
2021/12/21 14:50:03;;;;;;;;;;;;;;;1.67;69.42;97301.94;4150451;28;6604;-65
2021/12/21 14:52:18;;;;;;;;;;;;;;;1.72;69.05;97297.19;4152612;28;5745;-64
2021/12/21 14:54:25;;;;;;;;;;;;;;;1.73;69.08;97298.84;4136527;28;5821;-65
2021/12/21 14:56:29;;;;;;;;;;;;;;;1.68;69.14;97294.94;4153783;28;5683;-64
2021/12/21 14:58:30;;;;;;;;;;;;;;;1.58;69.38;97287.03;4114794;28;5499;-65
2021/12/21 15:00:38;;;;;;;;;;;;;;;1.59;69.44;97296.53;4162480;28;7765;-64
2021/12/21 15:02:50;;;;;;;;;;;;;;;1.61;69.62;97294.63;4158418;28;5728;-65
2021/12/21 15:04:58;;;;;;;;;;;;;;;1.62;69.43;97304.09;4162458;28;5719;-64
2021/12/21 15:06:59;;;;;;;;;;;;;;;1.37;70.37;97291.41;4161046;28;5826;-65
2021/12/21 15:09:02;;;;;;;;;;;;;;;1.57;69.79;97302.81;4149514;28;5922;-65
2021/12/21 15:11:09;;;;;;;;;;;;;;;1.59;69.79;97296.53;4151455;28;5748;-65
2021/12/21 15:13:12;;;;;;;;;;;;;;;1.66;69.71;97297.66;4164177;28;5675;-66
2021/12/21 15:15:16;;;;;;;;;;;;;;;1.69;69.72;97302.63;4136851;28;5694;-65
2021/12/21 15:17:18;;;;;;;;;;;;;;;1.70;69.60;97296.50;4157192;28;5836;-64
2021/12/21 15:19:19;;;;;;;;;;;;;;;1.72;69.72;97299.78;4145475;28;5773;-65
2021/12/21 15:21:22;;;;;;;;;;;;;;;1.69;69.61;97293.97;4166414;28;5839;-65
2021/12/21 15:23:23;;;;;;;;;;;;;;;1.63;69.40;97302.31;4169377;28;5758;-66
2021/12/21 15:25:25;;;;;;;;;;;;;;;1.64;69.58;97299.56;4167370;28;5748;-66
2021/12/21 15:27:27;;;;;;;;;;;;;;;1.59;69.80;97296.53;4168876;28;5684;-66
2021/12/21 15:29:29;;;;;;;;;;;;;;;1.66;69.72;97297.66;4134072;28;5799;-66
2021/12/21 15:31:31;;;;;;;;;;;;;;;1.70;69.58;97293.88;4157757;28;5825;-65
2021/12/21 15:33:33;;;;;;;;;;;;;;;1.73;69.42;97292.78;4157049;28;5668;-66
2021/12/21 15:35:36;;;;;;;;;;;;;;;1.72;69.39;97293.75;4160236;28;5660;-66
2021/12/21 15:37:38;;;;;;;;;;;;;;;1.67;69.36;97296.72;4143334;28;5907;-66
2021/12/21 15:39:39;;;;;;;;;;;;;;;1.61;69.42;97297.22;4151405;28;5711;-66
2021/12/21 15:41:45;;;;;;;;;;;;;;;1.65;69.62;97290.81;4164780;28;5181;-66
2021/12/21 15:43:47;;;;;;;;;;;;;;;1.64;69.55;97294.38;4158547;28;5811;-67
2021/12/21 15:45:49;;;;;;;;;;;;;;;1.64;69.53;97304.78;4156686;28;5746;-65
2021/12/21 15:47:52;;;;;;;;;;;;;;;1.63;69.48;97303.13;4159243;28;5731;-64
2021/12/21 15:49:54;;;;;;;;;;;;;;;1.60;69.61;97303.41;4154427;28;5986;-63
2021/12/21 15:52:00;;;;;;;;;;;;;;;1.45;70.11;97308.06;4166189;28;5887;-66
2021/12/21 15:54:02;;;;;;;;;;;;;;;1.53;69.78;97311.81;4148674;28;5902;-66
2021/12/21 15:56:04;;;;;;;;;;;;;;;1.49;69.74;97308.66;4148480;28;5795;-66
2021/12/21 15:58:07;;;;;;;;;;;;;;;1.52;69.71;97316.22;4128641;28;5774;-64
2021/12/21 16:00:17;;;;;;;;;;;;;;;1.53;69.92;97307.44;4152055;28;5761;-64
2021/12/21 16:02:23;;;;;;;;;;;;;;;1.44;69.72;97308.19;4160305;28;5872;-65
2021/12/21 16:04:26;;;;;;;;;;;;;;;1.41;70.15;97308.44;4144441;28;5719;-65
2021/12/21 16:06:28;;;;;;;;;;;;;;;1.54;70.04;97308.28;4168793;28;5749;-65
2021/12/21 16:08:30;;;;;;;;;;;;;;;1.58;69.86;97315.69;4181256;28;5851;-66
2021/12/21 16:10:33;;;;;;;;;;;;;;;1.59;69.74;97306.13;4164344;28;5844;-65
2021/12/21 16:12:35;;;;;;;;;;;;;;;1.52;69.93;97308.41;4146828;28;5882;-65
2021/12/21 16:14:37;;;;;;;;;;;;;;;1.42;70.28;97302.28;4162227;28;5716;-66
2021/12/21 16:16:40;;;;;;;;;;;;;;;1.39;70.44;97311.16;4158408;28;5664;-66
2021/12/21 16:18:41;;;;;;;;;;;;;;;1.26;70.58;97312.28;4127831;28;5126;-66
2021/12/21 16:21:02;;;;;;;;;;;;;;;1.29;70.75;97309.44;4159560;28;5649;-66
2021/12/21 16:23:23;;;;;;;;;;;;;;;1.42;70.15;97304.88;4145166;28;5887;-66
2021/12/21 16:25:25;;;;;;;;;;;;;;;1.45;70.09;97304.63;4147709;28;5739;-67
2021/12/21 16:27:38;;;;;;;;;;;;;;;1.45;70.10;97309.84;4145588;28;5689;-65
2021/12/21 16:29:46;;;;;;;;;;;;;;;1.47;70.18;97307.94;4146369;28;5572;-66
2021/12/21 16:31:52;;;;;;;;;;;;;;;1.51;70.13;97314.56;4159197;28;5760;-66
2021/12/21 16:33:59;;;;;;;;;;;;;;;1.48;70.04;97309.59;4146734;28;5902;-66
2021/12/21 16:36:03;;;;;;;;;;;;;;;1.50;70.01;97319.91;4158207;28;5684;-66
2021/12/21 16:38:05;;;;;;;;;;;;;;;1.48;70.26;97320.03;4163556;28;5586;-66
2021/12/21 16:40:07;;;;;;;;;;;;;;;1.15;71.73;97319.16;4160022;28;5834;-67
2021/12/21 16:42:11;;;;;;;;;;;;;;;1.39;70.86;97318.16;4150289;28;5906;-66
2021/12/21 16:44:13;;;;;;;;;;;;;;;1.53;70.77;97324.84;4177137;28;5745;-65
2021/12/21 16:46:15;;;;;;;;;;;;;;;1.43;70.81;97316.94;4168821;28;5775;-65
2021/12/21 16:48:17;;;;;;;;;;;;;;;1.54;70.40;97327.34;4145751;28;5805;-66
2021/12/21 16:50:19;;;;;;;;;;;;;;;1.54;70.60;97319.53;4158990;28;6409;-66
2021/12/21 16:52:21;;;;;;;;;;;;;;;1.63;70.40;97318.78;4154315;28;5756;-66